sensor_id;sensor_type;location;lat;lon;timestamp;pressure;altitude;pressure_sealevel;temperature;humidity
25526;BME280;13424;48.424;11.258;2023-03-15T00:02:18;94880.97;;;5.66;80.60
25526;BME280;13424;48.424;11.258;2023-03-15T00:04:44;94882.59;;;5.37;81.68
25526;BME280;13424;48.424;11.258;2023-03-15T00:07:10;94876.47;;;5.66;80.78
25526;BME280;13424;48.424;11.258;2023-03-15T00:09:36;94877.50;;;5.53;80.73
25526;BME280;13424;48.424;11.258;2023-03-15T00:12:02;94880.81;;;5.49;80.57
25526;BME280;13424;48.424;11.258;2023-03-15T00:14:27;94869.69;;;5.28;81.38
25526;BME280;13424;48.424;11.258;2023-03-15T00:16:54;94873.09;;;5.17;81.71
25526;BME280;13424;48.424;11.258;2023-03-15T00:19:19;94877.59;;;5.47;81.39
25526;BME280;13424;48.424;11.258;2023-03-15T00:21:45;94867.75;;;5.66;80.40
25526;BME280;13424;48.424;11.258;2023-03-15T00:24:11;94864.81;;;5.85;79.48
25526;BME280;13424;48.424;11.258;2023-03-15T00:26:37;94873.34;;;5.57;80.44
25526;BME280;13424;48.424;11.258;2023-03-15T00:29:06;94882.63;;;5.90;80.15
25526;BME280;13424;48.424;11.258;2023-03-15T00:31:32;94871.91;;;5.73;79.48
25526;BME280;13424;48.424;11.258;2023-03-15T00:33:58;94876.16;;;5.63;80.15
25526;BME280;13424;48.424;11.258;2023-03-15T00:36:25;94878.63;;;5.46;80.53
25526;BME280;13424;48.424;11.258;2023-03-15T00:38:57;94876.47;;;5.24;81.29
25526;BME280;13424;48.424;11.258;2023-03-15T00:41:23;94884.41;;;5.54;80.38
25526;BME280;13424;48.424;11.258;2023-03-15T00:43:49;94894.75;;;5.56;80.51
25526;BME280;13424;48.424;11.258;2023-03-15T00:46:17;94885.00;;;5.08;82.26
25526;BME280;13424;48.424;11.258;2023-03-15T00:48:46;94882.28;;;4.96;81.44
25526;BME280;13424;48.424;11.258;2023-03-15T00:51:16;94883.53;;;5.12;81.36
25526;BME280;13424;48.424;11.258;2023-03-15T00:53:44;94888.06;;;5.23;81.30
25526;BME280;13424;48.424;11.258;2023-03-15T00:56:16;94885.91;;;5.32;81.32
25526;BME280;13424;48.424;11.258;2023-03-15T00:58:43;94892.00;;;5.32;81.22
25526;BME280;13424;48.424;11.258;2023-03-15T01:01:14;94892.25;;;5.31;81.65
25526;BME280;13424;48.424;11.258;2023-03-15T01:03:41;94882.47;;;5.31;81.34
25526;BME280;13424;48.424;11.258;2023-03-15T01:06:16;94896.22;;;5.22;82.77
25526;BME280;13424;48.424;11.258;2023-03-15T01:08:43;94893.13;;;5.55;80.61
25526;BME280;13424;48.424;11.258;2023-03-15T01:11:13;94890.13;;;5.51;81.10
25526;BME280;13424;48.424;11.258;2023-03-15T01:13:39;94894.91;;;5.61;80.45
25526;BME280;13424;48.424;11.258;2023-03-15T01:16:07;94888.66;;;5.25;82.05
25526;BME280;13424;48.424;11.258;2023-03-15T01:18:33;94893.50;;;5.10;82.72
25526;BME280;13424;48.424;11.258;2023-03-15T01:20:59;94903.28;;;5.10;82.67
25526;BME280;13424;48.424;11.258;2023-03-15T01:23:25;94890.88;;;5.10;83.71
25526;BME280;13424;48.424;11.258;2023-03-15T01:25:51;94899.19;;;5.44;82.89
25526;BME280;13424;48.424;11.258;2023-03-15T01:28:17;94902.31;;;5.22;83.66
25526;BME280;13424;48.424;11.258;2023-03-15T01:30:50;94894.31;;;5.11;83.12
25526;BME280;13424;48.424;11.258;2023-03-15T01:33:17;94903.44;;;4.96;84.64
25526;BME280;13424;48.424;11.258;2023-03-15T01:35:43;94899.41;;;5.72;81.52
25526;BME280;13424;48.424;11.258;2023-03-15T01:38:09;94896.09;;;5.17;83.15
25526;BME280;13424;48.424;11.258;2023-03-15T01:40:44;94894.56;;;5.39;82.81
25526;BME280;13424;48.424;11.258;2023-03-15T01:43:18;94911.00;;;4.93;84.11
25526;BME280;13424;48.424;11.258;2023-03-15T01:49:13;94917.47;;;5.15;84.12
25526;BME280;13424;48.424;11.258;2023-03-15T01:52:01;94943.59;;;4.68;85.20
25526;BME280;13424;48.424;11.258;2023-03-15T01:55:08;94947.38;;;4.72;83.82
25526;BME280;13424;48.424;11.258;2023-03-15T01:57:49;94957.59;;;4.69;83.06
25526;BME280;13424;48.424;11.258;2023-03-15T02:00:26;94969.03;;;4.81;81.81
25526;BME280;13424;48.424;11.258;2023-03-15T02:03:12;94979.44;;;4.33;82.51
25526;BME280;13424;48.424;11.258;2023-03-15T02:05:50;94972.50;;;4.13;83.35
25526;BME280;13424;48.424;11.258;2023-03-15T02:08:31;94985.38;;;4.03;84.49
25526;BME280;13424;48.424;11.258;2023-03-15T02:10:58;94986.09;;;4.10;83.55
25526;BME280;13424;48.424;11.258;2023-03-15T02:13:28;94976.41;;;3.73;85.10
25526;BME280;13424;48.424;11.258;2023-03-15T02:15:56;94997.16;;;3.18;87.05
25526;BME280;13424;48.424;11.258;2023-03-15T02:18:28;94999.78;;;3.24;86.77
25526;BME280;13424;48.424;11.258;2023-03-15T02:24:28;95017.47;;;4.50;81.62
25526;BME280;13424;48.424;11.258;2023-03-15T02:27:00;95020.81;;;3.76;84.04
25526;BME280;13424;48.424;11.258;2023-03-15T02:29:26;95029.69;;;3.88;83.75
25526;BME280;13424;48.424;11.258;2023-03-15T02:31:53;95048.91;;;3.63;85.24
25526;BME280;13424;48.424;11.258;2023-03-15T02:34:19;95050.66;;;3.18;87.20
25526;BME280;13424;48.424;11.258;2023-03-15T02:36:59;95055.50;;;3.28;87.02
25526;BME280;13424;48.424;11.258;2023-03-15T02:39:26;95067.50;;;3.04;87.01
25526;BME280;13424;48.424;11.258;2023-03-15T02:41:57;95070.88;;;3.44;85.46
25526;BME280;13424;48.424;11.258;2023-03-15T02:44:32;95081.66;;;3.23;86.47
25526;BME280;13424;48.424;11.258;2023-03-15T02:47:29;95094.88;;;2.83;86.69
25526;BME280;13424;48.424;11.258;2023-03-15T02:49:57;95101.16;;;2.95;85.50
25526;BME280;13424;48.424;11.258;2023-03-15T02:52:23;95114.44;;;3.53;84.29
25526;BME280;13424;48.424;11.258;2023-03-15T02:54:49;95113.03;;;3.44;84.82
25526;BME280;13424;48.424;11.258;2023-03-15T02:57:17;95121.38;;;3.48;85.36
25526;BME280;13424;48.424;11.258;2023-03-15T02:59:45;95129.53;;;3.06;86.54
25526;BME280;13424;48.424;11.258;2023-03-15T03:02:12;95133.16;;;3.32;86.22
25526;BME280;13424;48.424;11.258;2023-03-15T03:04:40;95149.59;;;2.81;86.13
25526;BME280;13424;48.424;11.258;2023-03-15T03:07:06;95157.88;;;3.38;85.07
25526;BME280;13424;48.424;11.258;2023-03-15T03:09:41;95172.69;;;2.92;85.15
25526;BME280;13424;48.424;11.258;2023-03-15T03:12:08;95174.53;;;3.12;84.79
25526;BME280;13424;48.424;11.258;2023-03-15T03:14:34;95185.84;;;3.65;83.60
25526;BME280;13424;48.424;11.258;2023-03-15T03:17:02;95187.88;;;3.56;82.48
25526;BME280;13424;48.424;11.258;2023-03-15T03:19:28;95197.19;;;3.59;83.54
25526;BME280;13424;48.424;11.258;2023-03-15T03:21:54;95210.50;;;3.97;81.70
25526;BME280;13424;48.424;11.258;2023-03-15T03:24:21;95211.41;;;2.98;84.62
25526;BME280;13424;48.424;11.258;2023-03-15T03:26:57;95224.72;;;3.96;82.39
25526;BME280;13424;48.424;11.258;2023-03-15T03:29:26;95227.66;;;3.42;82.86
25526;BME280;13424;48.424;11.258;2023-03-15T03:31:53;95236.13;;;3.77;82.30
25526;BME280;13424;48.424;11.258;2023-03-15T03:34:20;95240.84;;;3.48;83.44
25526;BME280;13424;48.424;11.258;2023-03-15T03:36:46;95246.25;;;2.87;85.26
25526;BME280;13424;48.424;11.258;2023-03-15T03:39:17;95251.94;;;3.83;81.09
25526;BME280;13424;48.424;11.258;2023-03-15T03:41:44;95262.50;;;3.24;83.78
25526;BME280;13424;48.424;11.258;2023-03-15T03:44:11;95267.94;;;4.02;80.87
25526;BME280;13424;48.424;11.258;2023-03-15T03:50:19;95276.63;;;4.22;79.69
25526;BME280;13424;48.424;11.258;2023-03-15T03:52:46;95286.00;;;4.05;80.18
25526;BME280;13424;48.424;11.258;2023-03-15T03:55:19;95294.59;;;3.41;81.32
25526;BME280;13424;48.424;11.258;2023-03-15T03:57:50;95290.88;;;4.01;79.73
25526;BME280;13424;48.424;11.258;2023-03-15T04:00:29;95310.94;;;4.29;78.77
25526;BME280;13424;48.424;11.258;2023-03-15T04:02:55;95313.16;;;4.25;77.62
25526;BME280;13424;48.424;11.258;2023-03-15T04:05:21;95314.25;;;3.51;80.72
25526;BME280;13424;48.424;11.258;2023-03-15T04:07:47;95324.28;;;4.40;78.22
25526;BME280;13424;48.424;11.258;2023-03-15T04:10:15;95326.56;;;4.24;78.45
25526;BME280;13424;48.424;11.258;2023-03-15T04:12:56;95337.16;;;3.71;79.95
25526;BME280;13424;48.424;11.258;2023-03-15T04:15:23;95347.72;;;4.04;79.88
25526;BME280;13424;48.424;11.258;2023-03-15T04:17:55;95346.31;;;3.75;80.58
25526;BME280;13424;48.424;11.258;2023-03-15T04:20:26;95355.84;;;3.76;80.34
25526;BME280;13424;48.424;11.258;2023-03-15T04:22:53;95357.78;;;3.14;81.50
25526;BME280;13424;48.424;11.258;2023-03-15T04:25:30;95362.66;;;3.11;81.59
25526;BME280;13424;48.424;11.258;2023-03-15T04:28:09;95366.50;;;3.15;81.74
25526;BME280;13424;48.424;11.258;2023-03-15T04:30:51;95365.56;;;3.55;80.24
25526;BME280;13424;48.424;11.258;2023-03-15T04:33:30;95366.38;;;3.43;80.67
25526;BME280;13424;48.424;11.258;2023-03-15T04:36:49;95379.19;;;3.66;80.40
25526;BME280;13424;48.424;11.258;2023-03-15T04:39:37;95380.00;;;3.59;80.69
25526;BME280;13424;48.424;11.258;2023-03-15T04:42:26;95391.13;;;3.42;80.76
25526;BME280;13424;48.424;11.258;2023-03-15T04:45:25;95391.28;;;3.27;81.17
25526;BME280;13424;48.424;11.258;2023-03-15T04:48:03;95398.03;;;2.88;82.81
25526;BME280;13424;48.424;11.258;2023-03-15T04:50:35;95398.78;;;3.30;81.18
25526;BME280;13424;48.424;11.258;2023-03-15T04:53:07;95414.19;;;3.20;81.23
25526;BME280;13424;48.424;11.258;2023-03-15T04:59:52;95421.91;;;3.28;81.45
25526;BME280;13424;48.424;11.258;2023-03-15T05:02:42;95432.00;;;2.70;82.51
25526;BME280;13424;48.424;11.258;2023-03-15T05:05:25;95437.63;;;3.01;81.70
25526;BME280;13424;48.424;11.258;2023-03-15T05:08:19;95441.25;;;3.48;80.41
25526;BME280;13424;48.424;11.258;2023-03-15T05:11:04;95448.31;;;3.41;80.09
25526;BME280;13424;48.424;11.258;2023-03-15T05:13:56;95452.75;;;3.34;80.40
25526;BME280;13424;48.424;11.258;2023-03-15T05:16:41;95465.16;;;3.40;80.08
25526;BME280;13424;48.424;11.258;2023-03-15T05:19:15;95463.75;;;3.51;80.14
25526;BME280;13424;48.424;11.258;2023-03-15T05:21:57;95472.69;;;3.50;80.32
25526;BME280;13424;48.424;11.258;2023-03-15T05:24:41;95477.75;;;3.51;80.28
25526;BME280;13424;48.424;11.258;2023-03-15T05:27:37;95485.72;;;3.64;79.52
25526;BME280;13424;48.424;11.258;2023-03-15T05:30:19;95492.19;;;3.62;79.20
25526;BME280;13424;48.424;11.258;2023-03-15T05:33:06;95484.06;;;3.57;78.27
25526;BME280;13424;48.424;11.258;2023-03-15T05:35:42;95491.25;;;2.87;79.75
25526;BME280;13424;48.424;11.258;2023-03-15T05:38:29;95486.94;;;3.75;77.51
25526;BME280;13424;48.424;11.258;2023-03-15T05:41:16;95496.91;;;3.19;79.56
25526;BME280;13424;48.424;11.258;2023-03-15T05:43:54;95507.53;;;3.45;78.03
25526;BME280;13424;48.424;11.258;2023-03-15T05:46:59;95504.03;;;2.90;80.30
25526;BME280;13424;48.424;11.258;2023-03-15T05:49:38;95508.09;;;2.86;80.59
25526;BME280;13424;48.424;11.258;2023-03-15T05:52:24;95513.44;;;3.47;78.74
25526;BME280;13424;48.424;11.258;2023-03-15T05:55:01;95515.28;;;3.53;78.39
25526;BME280;13424;48.424;11.258;2023-03-15T05:57:47;95522.97;;;3.42;78.42
25526;BME280;13424;48.424;11.258;2023-03-15T06:00:22;95528.44;;;3.47;78.20
25526;BME280;13424;48.424;11.258;2023-03-15T06:02:51;95535.59;;;3.59;78.30
25526;BME280;13424;48.424;11.258;2023-03-15T06:05:30;95544.59;;;3.85;77.50
25526;BME280;13424;48.424;11.258;2023-03-15T06:08:00;95545.88;;;4.09;76.52
25526;BME280;13424;48.424;11.258;2023-03-15T06:10:26;95555.28;;;4.38;76.49
25526;BME280;13424;48.424;11.258;2023-03-15T06:12:54;95548.38;;;4.43;75.63
25526;BME280;13424;48.424;11.258;2023-03-15T06:15:21;95547.91;;;4.07;75.93
25526;BME280;13424;48.424;11.258;2023-03-15T06:17:48;95546.69;;;3.96;76.73
25526;BME280;13424;48.424;11.258;2023-03-15T06:20:16;95545.00;;;3.82;78.08
25526;BME280;13424;48.424;11.258;2023-03-15T06:22:41;95561.38;;;4.38;76.12
25526;BME280;13424;48.424;11.258;2023-03-15T06:25:18;95556.84;;;4.06;77.23
25526;BME280;13424;48.424;11.258;2023-03-15T06:27:45;95558.09;;;4.23;76.15
25526;BME280;13424;48.424;11.258;2023-03-15T06:30:12;95562.56;;;4.23;76.21
25526;BME280;13424;48.424;11.258;2023-03-15T06:32:38;95562.56;;;4.16;75.87
25526;BME280;13424;48.424;11.258;2023-03-15T06:35:04;95566.63;;;4.32;75.57
25526;BME280;13424;48.424;11.258;2023-03-15T06:37:31;95576.38;;;4.31;75.95
25526;BME280;13424;48.424;11.258;2023-03-15T06:39:56;95573.97;;;4.56;75.21
25526;BME280;13424;48.424;11.258;2023-03-15T06:42:22;95568.31;;;4.59;74.53
25526;BME280;13424;48.424;11.258;2023-03-15T06:44:48;95561.59;;;4.76;74.11
25526;BME280;13424;48.424;11.258;2023-03-15T06:47:14;95570.31;;;4.70;73.74
25526;BME280;13424;48.424;11.258;2023-03-15T06:49:40;95565.66;;;4.59;74.77
25526;BME280;13424;48.424;11.258;2023-03-15T06:52:07;95559.97;;;4.75;73.31
25526;BME280;13424;48.424;11.258;2023-03-15T06:54:32;95575.41;;;4.72;73.49
25526;BME280;13424;48.424;11.258;2023-03-15T06:56:58;95569.09;;;4.80;73.31
25526;BME280;13424;48.424;11.258;2023-03-15T06:59:24;95571.16;;;4.91;73.69
25526;BME280;13424;48.424;11.258;2023-03-15T07:01:50;95566.44;;;5.06;73.60
25526;BME280;13424;48.424;11.258;2023-03-15T07:04:16;95573.38;;;4.94;73.21
25526;BME280;13424;48.424;11.258;2023-03-15T07:06:42;95580.47;;;5.07;73.44
25526;BME280;13424;48.424;11.258;2023-03-15T07:09:08;95576.81;;;5.14;73.22
25526;BME280;13424;48.424;11.258;2023-03-15T07:11:33;95586.16;;;5.10;72.77
25526;BME280;13424;48.424;11.258;2023-03-15T07:13:59;95587.81;;;4.85;73.59
25526;BME280;13424;48.424;11.258;2023-03-15T07:16:25;95592.03;;;5.12;73.17
25526;BME280;13424;48.424;11.258;2023-03-15T07:18:51;95596.31;;;5.13;73.34
25526;BME280;13424;48.424;11.258;2023-03-15T07:21:20;95607.31;;;5.10;73.70
25526;BME280;13424;48.424;11.258;2023-03-15T07:23:46;95611.19;;;4.88;73.99
25526;BME280;13424;48.424;11.258;2023-03-15T07:26:11;95617.19;;;4.22;75.35
25526;BME280;13424;48.424;11.258;2023-03-15T07:28:46;95621.94;;;5.19;74.83
25526;BME280;13424;48.424;11.258;2023-03-15T07:31:13;95617.09;;;4.90;75.15
25526;BME280;13424;48.424;11.258;2023-03-15T07:33:39;95622.78;;;4.67;73.79
25526;BME280;13424;48.424;11.258;2023-03-15T07:36:06;95624.78;;;5.31;73.02
25526;BME280;13424;48.424;11.258;2023-03-15T07:38:33;95623.38;;;5.02;72.73
25526;BME280;13424;48.424;11.258;2023-03-15T07:41:04;95621.94;;;5.32;72.13
25526;BME280;13424;48.424;11.258;2023-03-15T07:43:30;95631.28;;;5.42;72.13
25526;BME280;13424;48.424;11.258;2023-03-15T07:46:07;95637.81;;;4.80;71.79
25526;BME280;13424;48.424;11.258;2023-03-15T07:48:33;95637.03;;;4.99;71.46
25526;BME280;13424;48.424;11.258;2023-03-15T07:50:59;95635.38;;;5.11;72.26
25526;BME280;13424;48.424;11.258;2023-03-15T07:53:25;95632.53;;;5.19;73.77
25526;BME280;13424;48.424;11.258;2023-03-15T07:55:51;95635.97;;;5.26;72.16
25526;BME280;13424;48.424;11.258;2023-03-15T07:58:17;95630.28;;;5.23;70.36
25526;BME280;13424;48.424;11.258;2023-03-15T08:00:42;95634.13;;;5.33;71.44
25526;BME280;13424;48.424;11.258;2023-03-15T08:03:08;95638.66;;;5.07;72.72
25526;BME280;13424;48.424;11.258;2023-03-15T08:05:35;95625.56;;;5.45;70.47
25526;BME280;13424;48.424;11.258;2023-03-15T08:08:01;95637.00;;;4.86;70.43
25526;BME280;13424;48.424;11.258;2023-03-15T08:10:57;95632.31;;;4.88;71.96
25526;BME280;13424;48.424;11.258;2023-03-15T08:13:24;95638.19;;;5.43;71.47
25526;BME280;13424;48.424;11.258;2023-03-15T08:15:50;95631.88;;;5.37;71.48
25526;BME280;13424;48.424;11.258;2023-03-15T08:18:16;95631.81;;;6.35;68.61
25526;BME280;13424;48.424;11.258;2023-03-15T08:20:42;95626.50;;;6.35;68.36
25526;BME280;13424;48.424;11.258;2023-03-15T08:23:07;95636.38;;;6.08;68.80
25526;BME280;13424;48.424;11.258;2023-03-15T08:25:34;95630.16;;;6.40;67.62
25526;BME280;13424;48.424;11.258;2023-03-15T08:28:01;95625.56;;;6.54;67.79
25526;BME280;13424;48.424;11.258;2023-03-15T08:30:27;95620.28;;;6.79;69.08
25526;BME280;13424;48.424;11.258;2023-03-15T08:32:53;95623.66;;;6.30;66.90
25526;BME280;13424;48.424;11.258;2023-03-15T08:35:20;95616.03;;;6.78;67.92
25526;BME280;13424;48.424;11.258;2023-03-15T08:37:46;95614.06;;;6.67;66.65
25526;BME280;13424;48.424;11.258;2023-03-15T08:40:17;95624.34;;;6.57;67.00
25526;BME280;13424;48.424;11.258;2023-03-15T08:42:48;95620.44;;;6.21;66.89
25526;BME280;13424;48.424;11.258;2023-03-15T08:45:14;95629.59;;;5.67;68.01
25526;BME280;13424;48.424;11.258;2023-03-15T08:47:41;95625.16;;;5.61;68.66
25526;BME280;13424;48.424;11.258;2023-03-15T08:50:11;95625.16;;;5.54;68.28
25526;BME280;13424;48.424;11.258;2023-03-15T08:52:37;95621.28;;;6.15;66.78
25526;BME280;13424;48.424;11.258;2023-03-15T08:55:04;95623.31;;;6.20;64.85
25526;BME280;13424;48.424;11.258;2023-03-15T08:57:30;95629.97;;;6.35;65.57
25526;BME280;13424;48.424;11.258;2023-03-15T09:00:02;95630.94;;;7.04;66.76
25526;BME280;13424;48.424;11.258;2023-03-15T09:02:35;95633.78;;;7.52;66.70
25526;BME280;13424;48.424;11.258;2023-03-15T09:05:02;95619.47;;;6.79;62.58
25526;BME280;13424;48.424;11.258;2023-03-15T09:07:32;95634.03;;;6.31;63.26
25526;BME280;13424;48.424;11.258;2023-03-15T09:09:58;95628.50;;;6.71;68.89
25526;BME280;13424;48.424;11.258;2023-03-15T09:12:24;95627.84;;;6.82;66.73
25526;BME280;13424;48.424;11.258;2023-03-15T09:14:49;95629.19;;;6.91;65.29
25526;BME280;13424;48.424;11.258;2023-03-15T09:17:15;95633.94;;;6.13;67.15
25526;BME280;13424;48.424;11.258;2023-03-15T09:19:41;95643.84;;;5.53;67.93
25526;BME280;13424;48.424;11.258;2023-03-15T09:22:07;95653.25;;;5.36;65.95
25526;BME280;13424;48.424;11.258;2023-03-15T09:24:32;95649.41;;;4.85;66.69
25526;BME280;13424;48.424;11.258;2023-03-15T09:26:58;95643.91;;;5.40;65.23
25526;BME280;13424;48.424;11.258;2023-03-15T09:29:24;95646.97;;;4.97;67.33
25526;BME280;13424;48.424;11.258;2023-03-15T09:31:50;95643.31;;;5.38;67.45
25526;BME280;13424;48.424;11.258;2023-03-15T09:34:16;95649.50;;;5.76;65.74
25526;BME280;13424;48.424;11.258;2023-03-15T09:36:42;95649.91;;;5.86;66.67
25526;BME280;13424;48.424;11.258;2023-03-15T09:39:07;95649.06;;;5.99;62.98
25526;BME280;13424;48.424;11.258;2023-03-15T09:42:03;95649.69;;;5.88;65.01
25526;BME280;13424;48.424;11.258;2023-03-15T09:50:26;95668.94;;;5.11;64.12
25526;BME280;13424;48.424;11.258;2023-03-15T09:53:03;95671.59;;;5.30;63.04
25526;BME280;13424;48.424;11.258;2023-03-15T09:55:30;95667.06;;;5.64;63.35
25526;BME280;13424;48.424;11.258;2023-03-15T09:58:09;95669.34;;;6.25;64.63
25526;BME280;13424;48.424;11.258;2023-03-15T10:05:19;95660.00;;;8.52;59.31
25526;BME280;13424;48.424;11.258;2023-03-15T10:07:47;95673.41;;;7.47;59.42
25526;BME280;13424;48.424;11.258;2023-03-15T10:10:33;95668.06;;;7.54;59.62
25526;BME280;13424;48.424;11.258;2023-03-15T10:16:14;95669.38;;;8.06;58.09
25526;BME280;13424;48.424;11.258;2023-03-15T10:21:45;95661.88;;;8.33;58.88
25526;BME280;13424;48.424;11.258;2023-03-15T10:24:49;95676.94;;;8.88;58.30
25526;BME280;13424;48.424;11.258;2023-03-15T10:27:49;95668.41;;;7.57;58.03
25526;BME280;13424;48.424;11.258;2023-03-15T10:30:27;95663.44;;;8.41;58.93
25526;BME280;13424;48.424;11.258;2023-03-15T10:35:52;95659.31;;;7.04;57.09
25526;BME280;13424;48.424;11.258;2023-03-15T10:39:08;95656.47;;;7.23;54.79
25526;BME280;13424;48.424;11.258;2023-03-15T10:41:43;95655.88;;;8.56;59.38
25526;BME280;13424;48.424;11.258;2023-03-15T10:44:19;95650.50;;;8.45;57.89
25526;BME280;13424;48.424;11.258;2023-03-15T10:47:06;95649.84;;;8.79;55.65
25526;BME280;13424;48.424;11.258;2023-03-15T10:49:37;95645.41;;;8.43;56.52
25526;BME280;13424;48.424;11.258;2023-03-15T10:52:04;95643.94;;;8.77;55.34
25526;BME280;13424;48.424;11.258;2023-03-15T10:54:33;95646.97;;;8.92;56.27
25526;BME280;13424;48.424;11.258;2023-03-15T10:57:15;95642.50;;;8.63;56.04
25526;BME280;13424;48.424;11.258;2023-03-15T11:00:17;95639.53;;;9.60;56.31
25526;BME280;13424;48.424;11.258;2023-03-15T11:02:50;95644.03;;;9.36;54.95
25526;BME280;13424;48.424;11.258;2023-03-15T11:05:17;95639.59;;;8.94;54.56
25526;BME280;13424;48.424;11.258;2023-03-15T11:07:59;95638.56;;;8.65;52.75
25526;BME280;13424;48.424;11.258;2023-03-15T11:10:28;95640.09;;;8.73;54.63
25526;BME280;13424;48.424;11.258;2023-03-15T11:13:20;95642.44;;;8.51;49.92
25526;BME280;13424;48.424;11.258;2023-03-15T11:16:19;95632.44;;;8.17;51.57
25526;BME280;13424;48.424;11.258;2023-03-15T11:18:54;95645.13;;;7.60;51.29
25526;BME280;13424;48.424;11.258;2023-03-15T11:21:25;95636.16;;;6.86;49.78
25526;BME280;13424;48.424;11.258;2023-03-15T11:23:53;95633.03;;;7.64;51.36
25526;BME280;13424;48.424;11.258;2023-03-15T11:26:25;95633.28;;;8.29;51.35
25526;BME280;13424;48.424;11.258;2023-03-15T11:29:01;95641.56;;;8.57;51.02
25526;BME280;13424;48.424;11.258;2023-03-15T11:31:27;95637.22;;;9.28;52.38
25526;BME280;13424;48.424;11.258;2023-03-15T11:34:02;95626.00;;;9.49;50.68
25526;BME280;13424;48.424;11.258;2023-03-15T11:36:32;95616.34;;;9.95;52.39
25526;BME280;13424;48.424;11.258;2023-03-15T11:39:01;95627.16;;;9.65;53.10
25526;BME280;13424;48.424;11.258;2023-03-15T11:41:54;95629.72;;;8.83;50.62
25526;BME280;13424;48.424;11.258;2023-03-15T11:44:38;95633.91;;;8.12;50.52
25526;BME280;13424;48.424;11.258;2023-03-15T11:47:40;95628.41;;;9.39;49.78
25526;BME280;13424;48.424;11.258;2023-03-15T11:50:13;95626.19;;;8.59;49.83
25526;BME280;13424;48.424;11.258;2023-03-15T11:52:40;95620.50;;;8.86;50.74
25526;BME280;13424;48.424;11.258;2023-03-15T11:55:25;95625.84;;;9.21;49.43
25526;BME280;13424;48.424;11.258;2023-03-15T11:57:52;95617.06;;;9.20;48.49
25526;BME280;13424;48.424;11.258;2023-03-15T12:01:14;95606.66;;;9.42;49.53
25526;BME280;13424;48.424;11.258;2023-03-15T12:03:48;95600.88;;;9.10;48.30
25526;BME280;13424;48.424;11.258;2023-03-15T12:08:51;95596.78;;;8.96;48.81
25526;BME280;13424;48.424;11.258;2023-03-15T12:16:29;95582.81;;;9.47;46.82
25526;BME280;13424;48.424;11.258;2023-03-15T12:19:17;95577.97;;;9.21;47.43
25526;BME280;13424;48.424;11.258;2023-03-15T12:28:39;95578.31;;;9.01;49.86
25526;BME280;13424;48.424;11.258;2023-03-15T12:31:12;95576.34;;;9.20;49.87
25526;BME280;13424;48.424;11.258;2023-03-15T12:33:53;95579.09;;;9.13;49.00
25526;BME280;13424;48.424;11.258;2023-03-15T12:36:41;95579.09;;;8.90;46.22
25526;BME280;13424;48.424;11.258;2023-03-15T12:41:47;95577.94;;;10.08;49.28
25526;BME280;13424;48.424;11.258;2023-03-15T12:47:11;95574.41;;;10.43;47.26
25526;BME280;13424;48.424;11.258;2023-03-15T12:49:44;95576.63;;;10.96;48.81
25526;BME280;13424;48.424;11.258;2023-03-15T12:55:03;95582.72;;;10.06;50.00
25526;BME280;13424;48.424;11.258;2023-03-15T12:57:51;95581.78;;;10.00;50.96
25526;BME280;13424;48.424;11.258;2023-03-15T13:00:22;95578.63;;;10.15;48.07
25526;BME280;13424;48.424;11.258;2023-03-15T13:03:00;95575.84;;;9.70;49.02
25526;BME280;13424;48.424;11.258;2023-03-15T13:11:58;95567.66;;;9.36;48.17
25526;BME280;13424;48.424;11.258;2023-03-15T13:14:45;95564.75;;;9.61;48.39
25526;BME280;13424;48.424;11.258;2023-03-15T13:23:12;95568.44;;;10.12;47.03
25526;BME280;13424;48.424;11.258;2023-03-15T13:31:01;95584.19;;;9.03;49.55
25526;BME280;13424;48.424;11.258;2023-03-15T13:33:30;95580.16;;;9.36;48.97
25526;BME280;13424;48.424;11.258;2023-03-15T13:36:11;95579.13;;;9.25;49.67
25526;BME280;13424;48.424;11.258;2023-03-15T13:38:51;95574.81;;;9.24;48.21
25526;BME280;13424;48.424;11.258;2023-03-15T13:41:27;95572.31;;;10.04;49.09
25526;BME280;13424;48.424;11.258;2023-03-15T13:43:56;95581.91;;;9.94;47.45
25526;BME280;13424;48.424;11.258;2023-03-15T13:46:25;95571.81;;;10.48;46.38
25526;BME280;13424;48.424;11.258;2023-03-15T13:48:53;95575.03;;;9.69;47.99
25526;BME280;13424;48.424;11.258;2023-03-15T13:51:27;95572.06;;;9.42;49.29
25526;BME280;13424;48.424;11.258;2023-03-15T13:54:23;95579.25;;;9.18;49.55
25526;BME280;13424;48.424;11.258;2023-03-15T13:59:39;95584.41;;;8.90;50.54
25526;BME280;13424;48.424;11.258;2023-03-15T14:02:23;95590.56;;;8.60;50.29
25526;BME280;13424;48.424;11.258;2023-03-15T14:04:58;95591.75;;;8.34;49.75
25526;BME280;13424;48.424;11.258;2023-03-15T14:07:39;95598.81;;;7.74;53.07
25526;BME280;13424;48.424;11.258;2023-03-15T14:12:57;95612.81;;;7.81;54.71
25526;BME280;13424;48.424;11.258;2023-03-15T14:20:41;95611.50;;;7.53;53.98
25526;BME280;13424;48.424;11.258;2023-03-15T14:23:15;95608.88;;;7.90;53.17
25526;BME280;13424;48.424;11.258;2023-03-15T14:25:42;95617.38;;;8.47;51.44
25526;BME280;13424;48.424;11.258;2023-03-15T14:28:14;95618.13;;;7.81;53.83
25526;BME280;13424;48.424;11.258;2023-03-15T14:30:53;95616.59;;;8.10;53.61
25526;BME280;13424;48.424;11.258;2023-03-15T14:33:38;95614.31;;;7.95;53.95
25526;BME280;13424;48.424;11.258;2023-03-15T14:36:20;95606.97;;;8.46;53.64
25526;BME280;13424;48.424;11.258;2023-03-15T14:38:53;95603.41;;;7.67;54.37
25526;BME280;13424;48.424;11.258;2023-03-15T14:41:31;95603.41;;;7.23;57.30
25526;BME280;13424;48.424;11.258;2023-03-15T14:44:01;95609.78;;;7.41;57.75
25526;BME280;13424;48.424;11.258;2023-03-15T14:46:31;95602.81;;;7.83;58.29
25526;BME280;13424;48.424;11.258;2023-03-15T14:48:57;95612.97;;;8.04;57.28
25526;BME280;13424;48.424;11.258;2023-03-15T14:51:23;95610.84;;;8.61;55.76
25526;BME280;13424;48.424;11.258;2023-03-15T14:53:53;95605.00;;;7.86;58.01
25526;BME280;13424;48.424;11.258;2023-03-15T14:56:22;95611.53;;;8.68;56.36